Have a Safe July 4th! 

Flight Track Log - Related Links

Times and Time Zones

All times are in EST time to prevent confusion due to time zone crossing. See the TYR850 flight status page for this flight to view local times or setup timezone preferences in your user account.

Time Position Orientation Groundspeed Altitude Reporting Facility
EST Latitude Longitude Course Direction KTS MPH feet Rate Location/Type
Sat 10:41:00 PM 41.9756 19.4843 343° North  Level Estimated
Sat 10:42:00 PM 42.0690 19.4446 342° North  Level Estimated
Sat 10:43:00 PM 42.1625 19.4047 342° North  Level Estimated
Sat 10:44:00 PM 42.2559 19.3647 342° North  Level Estimated
Sat 10:45:00 PM 42.3493 19.3245 342° North  Level Estimated
Sat 10:46:00 PM 42.4426 19.2843 342° North  Level Estimated
Sat 10:47:00 PM 42.5360 19.2439 342° North  Level Estimated
Sat 10:48:00 PM 42.6293 19.2034 342° North  Level Estimated
Sat 10:49:00 PM 42.7227 19.1628 342° North  Level Estimated
Sat 10:50:00 PM 42.8160 19.1221 342° North  Level Estimated
Sat 10:51:00 PM 42.9093 19.0812 342° North  Level Estimated
Sat 10:52:00 PM 43.0026 19.0403 342° North  Level Estimated
Sat 10:53:00 PM 43.0958 18.9992 342° North  Level Estimated
Sat 10:54:00 PM 43.1891 18.9579 342° North  Level Estimated
Sat 10:55:00 PM 43.2823 18.9166 342° North  Level Estimated
Sat 10:56:00 PM 43.3756 18.8751 342° North  Level Estimated
Sat 10:57:00 PM 43.4688 18.8335 342° North  Level Estimated
Sat 10:58:00 PM 43.5620 18.7917 342° North  Level Estimated
Sat 10:59:00 PM 43.6552 18.7499 342° North  Level Estimated
Sat 11:00:00 PM 43.7483 18.7079 342° North  Level Estimated
Sat 11:01:00 PM 43.8415 18.6658 342° North  Level Estimated
Sat 11:02:00 PM 43.9346 18.6235 342° North  Level Estimated
Sat 11:03:00 PM 44.0277 18.5811 342° North  Level Estimated
Sat 11:04:00 PM 44.1208 18.5386 342° North  Level Estimated
Sat 11:05:00 PM 44.2139 18.4959 342° North  Level Estimated
Sat 11:06:00 PM 44.3070 18.4531 342° North  Level Estimated
Sat 11:07:00 PM 44.4001 18.4102 342° North  Level Estimated
Sat 11:08:00 PM 44.4931 18.3671 342° North  Level Estimated
Sat 11:09:00 PM 44.5861 18.3239 342° North  Level Estimated
Sat 11:10:00 PM 44.6791 18.2806 342° North  Level Estimated
Sat 11:11:00 PM 44.7721 18.2371 342° North  Level Estimated
Sat 11:12:00 PM 44.8651 18.1935 342° North  Level Estimated
Sat 11:13:00 PM 44.9581 18.1497 342° North  Level Estimated
Sat 11:14:00 PM 45.0510 18.1058 342° North  Level Estimated
Sat 11:15:00 PM 45.1440 18.0618 342° North  Level Estimated
Sat 11:16:00 PM 45.2369 18.0176 341° North  Level Estimated
Sat 11:17:00 PM 45.3298 17.9732 341° North  Level Estimated
Sat 11:18:00 PM 45.4226 17.9287 341° North  Level Estimated
Sat 11:19:00 PM 45.5155 17.8841 341° North  Level Estimated
Sat 11:20:00 PM 45.6083 17.8393 341° North  Level Estimated
Sat 11:21:00 PM 45.7011 17.7944 341° North  Level Estimated
Sat 11:22:00 PM 45.7940 17.7493 341° North  Level Estimated
Sat 11:23:00 PM 45.8867 17.7041 341° North  Level Estimated
Sat 11:24:00 PM 45.9795 17.6587 341° North  Level Estimated
Sat 11:25:00 PM 46.0723 17.6132 341° North  Level Estimated
Sat 11:26:00 PM 46.1650 17.5675 341° North  Level Estimated
Sat 11:27:00 PM 46.2577 17.5217 341° North  Level Estimated
Sat 11:28:00 PM 46.3504 17.4757 341° North  Level Estimated
Sat 11:29:00 PM 46.4431 17.4295 341° North  Level Estimated
Sat 11:30:00 PM 46.5358 17.3832 341° North  Level Estimated
Sat 11:31:00 PM 46.6284 17.3368 341° North  Level Estimated
Sat 11:32:00 PM 46.7210 17.2901 341° North  Level Estimated
Sat 11:33:00 PM 46.8136 17.2433 341° North  Level Estimated
Sat 11:34:00 PM 46.9062 17.1964 341° North  Level Estimated
Sat 11:35:00 PM 46.9988 17.1493 341° North  Level Estimated
Sat 11:36:00 PM 47.0913 17.1020 341° North  Level Estimated
Sat 11:37:00 PM 47.1838 17.0546 341° North  Level Estimated
Sat 11:38:00 PM 47.2763 17.0070 341° North  Level Estimated
Sat 11:39:00 PM 47.3688 16.9592 341° North  Level Estimated
Sat 11:40:00 PM 47.4613 16.9113 341° North  Level Estimated
Sat 11:41:00 PM 47.5538 16.8632 341° North  Level Estimated
Sat 11:42:00 PM 47.6462 16.8149 341° North  Level Estimated
Sat 11:43:00 PM 47.7386 16.7665 341° North  Level Estimated
Sat 11:44:00 PM 47.8310 16.7178 341° North  Level Estimated
Sat 11:45:00 PM 47.9234 16.6690 341° North  Level Estimated
Sat 11:46:00 PM 48.0157 16.6201 340° North  Level Estimated
Sat 11:47:00 PM 48.1080 16.5709 340° North  Level Estimated
Sat 11:48:00 PM 48.1103 16.5697 340° North  Level Estimated
Sat 11:49:00 PM 48.1103 16.5697 146° Southeast  Level Estimated
Sat 11:50:00 PM 48.1103 16.5697 146° Southeast  Level Estimated
Sat 11:51:00 PM 48.1103 16.5697 146° Southeast  Level Estimated
Sat 11:52:00 PM 48.1103 16.5697 146° Southeast  Level Estimated
Sat 11:53:00 PM 48.1103 16.5697 146° Southeast  Level Estimated
Sat 11:54:00 PM 48.1103 16.5697 146° Southeast  Level Estimated
Sat 11:55:00 PM 48.1103 16.5697 146° Southeast  Level Estimated
Sat 11:56:00 PM 48.1103 16.5697 146° Southeast  Level Estimated

Login

Don't have an account? Register now (free) for customized features, flight alerts, and more!